Wichita, KS (67209)

2:03 AM CDT on September 03, 2015 (GMT -0500)
Near the airport | | Change Station
CLOSE
Current Station
Personal Weather Station
Location: Wichita, KS
Elevation: 1348 ft
Nearby Weather Stations

Elev 1348 ft 37.65 °N, 97.44 °W | Updated 9 seconds ago

Scattered Clouds
Scattered Clouds
75.3 °F
Feels Like 77 °F
N
5.0
Wind Variable Wind from SSE
Gusts 9.0 mph

Today
High -- | Low -- °F
--% Chance of Precip.
Yesterday
High -- | Low -- °F
Precip. -- in
7:01 AM 7:56 PM
Waning Gibbous, 73% visible
Pressure 29.87 in
Visibility 10.0 miles
Clouds Scattered Clouds 25000 ft
Heat Index 77 °F
Dew Point 64 °F
Humidity 68%
Rainfall 0.00 in
Snow Depth Not available.
UV 0 out of 12
Pollen 11.50 out of 12
Air Quality Not available.
Flu Activity Not available.
METAR KICT 030653Z 17010KT 10SM SCT250 24/17 A2992 RMK AO2 SLP113 T02440172
Pressure 29.87 in
Visibility 10.0 miles
Clouds Scattered Clouds 25000 ft
Heat Index 77 °F
Dew Point 64 °F
Humidity 68%
Rainfall 0.00 in
Snow Depth Not available.
UV 0 out of 12
Pollen 11.50 out of 12
Air Quality Not available.
Flu Activity Not available.
METAR KICT 030653Z 17010KT 10SM SCT250 24/17 A2992 RMK AO2 SLP113 T02440172

10-Day Weather Forecast

×

Almanac

Astronomy

Sep. 03, 2015 Rise Set
Actual Time
Civil Twilight
Nautical Twilight
Astronomical Twilight
Moon
Length of Visible Light
Length of Day
Tomorrow will be .
, % of the Moon is Illuminated

Today's Extremes

State Highs State Lows

Community

WunderPhotos

Upload Photos

1,851,915 photos uploaded!

WunderBlogs® & News

Nearby

Air Quality

  Air Quality AQ Index Pollutant
Not available.

Snow Depth

Station Depth Elevation

Earthquake Activity

City Distance Mag. Time & Date
Minimum magnitude displayed is 2.5.

Coastal Water Temperatures

Place Temperature

Stations

Nearby Weather Stations

Station Location Temp. Windchill Dew Point Humidity Wind Precip. Elev Updated Type